createdAt,value
2023-05-23T00:08:21.296Z,101298.69
2023-05-23T00:50:39.034Z,101306.78
2023-05-23T00:56:27.674Z,101309.72
2023-05-23T01:03:28.923Z,101326.03
2023-05-23T01:06:01.384Z,101339.22
2023-05-23T01:08:32.886Z,101332.09
2023-05-23T01:11:10.655Z,101334.00
2023-05-23T01:14:21.337Z,101324.13
2023-05-23T01:21:43.127Z,101322.59
2023-05-23T01:24:40.036Z,101325.22
2023-05-23T01:31:14.738Z,101318.97
2023-05-23T01:34:27.265Z,101325.41
2023-05-23T01:37:46.576Z,101324.16
2023-05-23T01:40:15.833Z,101334.38
2023-05-23T01:42:44.104Z,101324.00
2023-05-23T01:45:13.532Z,101328.50
2023-05-23T01:47:43.803Z,101335.78
2023-05-23T01:50:13.528Z,101335.78
2023-05-23T01:52:41.525Z,101330.41
2023-05-23T01:55:11.977Z,101332.16
2023-05-23T01:57:40.552Z,101322.09
2023-05-23T02:00:12.302Z,101334.06
2023-05-23T02:02:44.897Z,101332.31
2023-05-23T02:05:12.942Z,101328.00
2023-05-23T02:07:41.000Z,101330.94
2023-05-23T02:10:10.531Z,101338.22
2023-05-23T02:12:39.360Z,101333.03
2023-05-23T02:15:08.879Z,101332.16
2023-05-23T02:17:38.742Z,101332.47
2023-05-23T02:20:10.317Z,101327.81
2023-05-23T02:22:38.187Z,101329.19
2023-05-23T02:25:09.728Z,101331.97
2023-05-23T02:27:37.897Z,101339.56
2023-05-23T02:30:07.654Z,101341.31
2023-05-23T02:32:37.702Z,101338.72
2023-05-23T02:35:06.625Z,101338.72
2023-05-23T02:37:35.886Z,101344.09
2023-05-23T02:40:07.720Z,101343.22
2023-05-23T02:42:36.844Z,101346.31
2023-05-23T02:45:05.174Z,101353.59
2023-05-23T02:47:33.068Z,101344.41
2023-05-23T02:50:01.446Z,101345.47
2023-05-23T02:52:29.757Z,101351.19
2023-05-23T02:54:58.938Z,101353.78
2023-05-23T02:57:27.378Z,101352.41
2023-05-23T02:59:55.741Z,101347.91
2023-05-23T03:02:23.813Z,101355.19
2023-05-23T03:04:51.624Z,101362.78
2023-05-23T03:07:27.510Z,101353.59
2023-05-23T03:09:58.689Z,101363.66
2023-05-23T03:12:26.630Z,101361.22
2023-05-23T03:14:54.624Z,101356.75
2023-05-23T03:17:23.119Z,101357.06
2023-05-23T03:19:51.311Z,101347.91
2023-05-23T03:22:20.261Z,101364.69
2023-05-23T03:24:48.262Z,101351.00
2023-05-23T03:27:17.611Z,101363.81
2023-05-23T03:29:45.533Z,101359.69
2023-05-23T03:32:13.838Z,101351.53
2023-05-23T03:34:42.209Z,101361.03
2023-05-23T03:37:12.715Z,101363.16
2023-05-23T03:39:40.544Z,101360.53
2023-05-23T03:42:08.944Z,101362.44
2023-05-23T03:44:38.616Z,101362.28
2023-05-23T03:47:08.277Z,101369.19
2023-05-23T03:49:39.143Z,101374.72
2023-05-23T03:52:07.515Z,101377.66
2023-05-23T03:54:35.822Z,101379.56
2023-05-23T03:57:03.718Z,101383.34
2023-05-23T03:59:31.798Z,101392.72
2023-05-23T04:02:01.502Z,101388.91
2023-05-23T04:04:31.149Z,101387.53
2023-05-23T04:07:01.571Z,101392.19
2023-05-23T04:09:29.928Z,101398.75
2023-05-23T04:11:58.657Z,101398.94
2023-05-23T04:14:27.638Z,101403.78
2023-05-23T04:16:56.527Z,101403.09
2023-05-23T04:19:26.031Z,101405.88
2023-05-23T04:21:54.084Z,101401.53
2023-05-23T04:24:22.011Z,101411.03
2023-05-23T04:26:50.060Z,101399.28
2023-05-23T04:29:17.997Z,101404.81
2023-05-23T04:31:46.822Z,101415.19
2023-05-23T04:34:17.198Z,101413.59
2023-05-23T04:36:46.919Z,101411.00
2023-05-23T04:39:16.028Z,101412.06
2023-05-23T04:41:56.899Z,101420.69
2023-05-23T04:44:51.091Z,101426.56
2023-05-23T04:47:28.034Z,101423.78
2023-05-23T04:50:05.508Z,101429.31
2023-05-23T04:52:35.121Z,101422.59
2023-05-23T04:55:03.669Z,101420.00
2023-05-23T04:57:31.762Z,101425.53
2023-05-23T05:00:01.139Z,101427.25
2023-05-23T05:02:35.164Z,101427.41
2023-05-23T05:05:04.116Z,101428.47
2023-05-23T05:07:32.032Z,101432.97
2023-05-23T05:10:03.202Z,101431.06
2023-05-23T05:12:33.321Z,101430.34
2023-05-23T05:15:01.591Z,101426.69
2023-05-23T05:17:30.253Z,101437.94
2023-05-23T05:20:08.433Z,101438.97
2023-05-23T05:22:40.330Z,101439.69
2023-05-23T05:25:12.324Z,101442.63
2023-05-23T05:27:41.149Z,101441.03
2023-05-23T05:30:12.419Z,101446.56
2023-05-23T05:32:51.641Z,101444.84
2023-05-23T05:35:20.037Z,101449.50
2023-05-23T05:37:48.206Z,101460.56
2023-05-23T05:40:17.539Z,101459.56
2023-05-23T05:42:45.605Z,101459.72
2023-05-23T05:45:13.730Z,101457.09
2023-05-23T05:47:43.554Z,101457.97
2023-05-23T05:50:12.361Z,101465.25
2023-05-23T05:52:40.497Z,101458.84
2023-05-23T05:55:11.325Z,101460.94
2023-05-23T05:57:42.774Z,101464.72
2023-05-23T06:00:15.181Z,101472.00
2023-05-23T06:02:52.601Z,101471.28
2023-05-23T06:05:33.816Z,101473.34
2023-05-23T06:08:02.071Z,101473.19
2023-05-23T06:10:30.164Z,101478.72
2023-05-23T06:12:59.488Z,101484.09
2023-05-23T06:15:27.535Z,101481.50
2023-05-23T06:17:55.461Z,101479.75
2023-05-23T06:20:24.947Z,101484.44
2023-05-23T06:22:54.184Z,101485.44
2023-05-23T06:25:22.008Z,101475.41
2023-05-23T06:27:50.352Z,101486.47
2023-05-23T06:30:19.649Z,101487.34
2023-05-23T06:32:47.789Z,101480.28
2023-05-23T06:35:16.134Z,101480.44
2023-05-23T06:37:45.833Z,101487.00
2023-05-23T06:40:14.251Z,101486.84
2023-05-23T06:42:42.379Z,101483.34
2023-05-23T06:45:21.067Z,101495.28
2023-05-23T06:47:49.410Z,101493.72
2023-05-23T06:50:20.108Z,101496.31
2023-05-23T06:52:49.976Z,101495.09
2023-05-23T06:55:19.430Z,101500.13
2023-05-23T06:57:52.311Z,101503.91
2023-05-23T07:00:23.802Z,101515.69
2023-05-23T07:03:04.234Z,101514.97
2023-05-23T07:05:33.340Z,101527.78
2023-05-23T07:08:01.388Z,101519.50
2023-05-23T07:10:29.367Z,101521.22
2023-05-23T07:13:05.078Z,101523.13
2023-05-23T07:15:34.595Z,101531.97
2023-05-23T07:18:12.502Z,101521.22
2023-05-23T07:20:40.590Z,101532.13
2023-05-23T07:23:15.652Z,101526.59
2023-05-23T07:25:53.753Z,101525.56
2023-05-23T07:28:32.500Z,101534.75
2023-05-23T07:31:02.282Z,101536.16
2023-05-23T07:33:33.567Z,101540.81
2023-05-23T07:36:04.608Z,101534.25
2023-05-23T07:38:32.465Z,101546.91
2023-05-23T07:41:10.745Z,101539.28
2023-05-23T07:43:41.328Z,101536.34
2023-05-23T07:46:26.733Z,101545.91
2023-05-23T07:49:04.620Z,101546.94
2023-05-23T07:51:36.698Z,101542.44
2023-05-23T07:54:14.522Z,101552.63
2023-05-23T07:57:34.706Z,101547.41
2023-05-23T08:03:25.926Z,101554.22
2023-05-23T08:06:04.514Z,101560.06
2023-05-23T08:08:33.099Z,101556.28
2023-05-23T08:11:02.234Z,101562.84
2023-05-23T08:13:39.173Z,101564.91
2023-05-23T08:16:33.514Z,101571.66
2023-05-23T08:19:03.197Z,101580.78
2023-05-23T08:21:33.450Z,101588.41
2023-05-23T08:24:03.870Z,101587.72
2023-05-23T08:26:35.003Z,101587.00
2023-05-23T08:29:05.646Z,101594.59
2023-05-23T08:31:36.609Z,101606.72
2023-05-23T08:34:08.288Z,101604.09
2023-05-23T08:36:40.127Z,101603.53
2023-05-23T08:39:13.825Z,101606.81
2023-05-23T08:41:51.215Z,101608.72
2023-05-23T08:44:19.391Z,101602.47
2023-05-23T08:46:54.319Z,101610.91
2023-05-23T08:49:46.281Z,101621.59
2023-05-23T08:55:55.802Z,101625.03
2023-05-23T08:58:30.086Z,101632.44
2023-05-23T09:01:02.813Z,101635.38
2023-05-23T09:03:34.220Z,101635.69
2023-05-23T09:06:18.398Z,101642.09
2023-05-23T09:08:46.800Z,101641.38
2023-05-23T09:11:16.410Z,101641.38
2023-05-23T09:13:46.299Z,101647.78
2023-05-23T09:16:18.892Z,101643.09
2023-05-23T09:18:57.898Z,101645.88
2023-05-23T09:21:28.950Z,101646.44
2023-05-23T09:24:07.246Z,101661.28
2023-05-23T09:26:35.592Z,101656.47
2023-05-23T09:29:07.416Z,101658.22
2023-05-23T09:31:36.564Z,101656.78
2023-05-23T09:34:05.292Z,101658.53
2023-05-23T09:36:36.577Z,101665.97
2023-05-23T09:39:06.473Z,101669.75
2023-05-23T09:41:35.316Z,101669.91
2023-05-23T09:44:07.462Z,101670.94
2023-05-23T09:46:38.050Z,101673.31
2023-05-23T09:49:19.813Z,101678.84
2023-05-23T09:52:00.808Z,101670.84
2023-05-23T09:54:29.051Z,101686.91
2023-05-23T09:57:01.317Z,101679.06
2023-05-23T09:59:32.799Z,101688.56
2023-05-23T10:02:03.701Z,101688.56
2023-05-23T10:04:37.177Z,101690.63
2023-05-23T10:07:15.916Z,101685.22
2023-05-23T10:09:51.690Z,101688.47
2023-05-23T10:13:03.130Z,101693.72
2023-05-23T10:15:36.838Z,101691.13
2023-05-23T10:18:09.311Z,101678.31
2023-05-23T10:20:41.226Z,101689.69
2023-05-23T10:23:11.856Z,101689.69
2023-05-23T10:25:42.139Z,101686.19
2023-05-23T10:28:12.362Z,101699.00
2023-05-23T10:30:41.846Z,101705.38
2023-05-23T10:33:12.064Z,101711.78
2023-05-23T10:35:49.118Z,101707.00
2023-05-23T10:38:38.025Z,101713.53
2023-05-23T10:41:13.681Z,101720.22
2023-05-23T10:43:48.415Z,101715.56
2023-05-23T10:46:16.913Z,101721.59
2023-05-23T10:48:45.903Z,101714.16
2023-05-23T10:51:17.458Z,101717.81
2023-05-23T10:53:50.293Z,101721.28
2023-05-23T10:56:23.965Z,101720.22
2023-05-23T10:58:55.079Z,101720.97
2023-05-23T11:01:23.917Z,101715.28
2023-05-23T11:03:55.267Z,101719.47
2023-05-23T11:06:33.274Z,101712.47
2023-05-23T11:09:10.419Z,101715.34
2023-05-23T11:12:05.413Z,101711.41
2023-05-23T11:14:55.781Z,101717.56
2023-05-23T11:17:34.721Z,101714.88
2023-05-23T11:20:07.311Z,101714.25
2023-05-23T11:22:35.713Z,101713.13
2023-05-23T11:25:10.696Z,101711.56
2023-05-23T11:27:42.096Z,101710.22
2023-05-23T11:30:13.645Z,101713.22
2023-05-23T11:32:43.186Z,101719.47
2023-05-23T11:35:12.248Z,101721.75
2023-05-23T11:37:40.874Z,101717.66
2023-05-23T11:40:31.134Z,101719.41
2023-05-23T11:43:00.074Z,101737.56
2023-05-23T11:45:29.560Z,101731.72
2023-05-23T11:47:57.888Z,101728.06
2023-05-23T11:50:26.444Z,101730.84
2023-05-23T11:52:56.511Z,101736.06
2023-05-23T11:55:25.087Z,101734.50
2023-05-23T11:57:57.771Z,101739.53
2023-05-23T12:00:25.788Z,101732.81
2023-05-23T12:02:54.251Z,101736.69
2023-05-23T12:05:22.545Z,101734.50
2023-05-23T12:07:51.228Z,101737.81
2023-05-23T12:10:22.508Z,101740.59
2023-05-23T12:12:54.629Z,101738.38
2023-05-23T12:15:29.268Z,101742.19
2023-05-23T12:17:58.289Z,101742.19
2023-05-23T12:20:28.069Z,101743.59
2023-05-23T12:22:58.925Z,101749.16
2023-05-23T12:25:28.102Z,101745.81
2023-05-23T12:27:58.284Z,101750.03
2023-05-23T12:30:26.509Z,101741.88
2023-05-23T12:32:54.583Z,101743.75
2023-05-23T12:35:22.774Z,101744.63
2023-05-23T12:37:50.987Z,101738.94
2023-05-23T12:40:21.574Z,101736.03
2023-05-23T12:42:55.504Z,101731.00
2023-05-23T12:45:38.814Z,101727.78
2023-05-23T12:48:08.712Z,101726.56
2023-05-23T12:50:37.001Z,101725.22
2023-05-23T12:53:05.133Z,101735.09
2023-05-23T12:55:34.406Z,101732.00
2023-05-23T12:58:02.587Z,101735.34
2023-05-23T13:00:32.136Z,101725.66
2023-05-23T13:03:00.309Z,101729.28
2023-05-23T13:05:28.764Z,101729.13
2023-05-23T13:07:59.532Z,101718.56
2023-05-23T13:10:29.507Z,101729.34
2023-05-23T13:12:59.201Z,101735.59
2023-05-23T13:15:27.378Z,101733.19
2023-05-23T13:18:00.208Z,101737.91
2023-05-23T13:20:30.204Z,101731.34
2023-05-23T13:22:58.703Z,101728.41
2023-05-23T13:25:27.577Z,101733.28
2023-05-23T13:27:57.857Z,101733.13
2023-05-23T13:30:26.877Z,101741.81
2023-05-23T13:32:58.098Z,101730.44
2023-05-23T13:35:27.860Z,101739.66
2023-05-23T13:37:56.219Z,101736.56
2023-05-23T13:40:24.620Z,101746.44
2023-05-23T13:42:53.691Z,101743.19
2023-05-23T13:45:23.087Z,101749.44
2023-05-23T13:47:51.242Z,101745.44
2023-05-23T13:50:19.411Z,101738.00
2023-05-23T13:52:49.671Z,101736.66
2023-05-23T13:55:18.781Z,101732.13
2023-05-23T13:57:47.198Z,101735.78
2023-05-23T14:00:16.158Z,101733.88
2023-05-23T14:02:44.294Z,101723.97
2023-05-23T14:05:12.466Z,101739.59
2023-05-23T14:07:41.259Z,101737.69
2023-05-23T14:10:12.054Z,101731.09
2023-05-23T14:12:39.972Z,101722.22
2023-05-23T14:15:09.097Z,101731.25
2023-05-23T14:17:37.151Z,101727.78
2023-05-23T14:20:05.735Z,101722.22
2023-05-23T14:22:33.692Z,101720.50
2023-05-23T14:25:01.753Z,101727.78
2023-05-23T14:27:31.509Z,101714.94
2023-05-23T14:29:59.396Z,101717.03
2023-05-23T14:32:27.723Z,101716.34
2023-05-23T14:34:56.597Z,101724.81
2023-05-23T14:37:29.035Z,101734.00
2023-05-23T14:39:57.686Z,101731.72
2023-05-23T14:42:26.602Z,101725.28
2023-05-23T14:44:56.759Z,101719.75
2023-05-23T14:47:34.201Z,101722.88
2023-05-23T14:50:04.282Z,101720.97
2023-05-23T14:52:32.984Z,101718.19
2023-05-23T14:55:02.348Z,101714.56
2023-05-23T14:57:32.625Z,101717.34
2023-05-23T15:00:05.905Z,101715.06
2023-05-23T15:02:35.236Z,101725.81
2023-05-23T15:05:04.943Z,101716.13
2023-05-23T15:07:33.147Z,101714.19
2023-05-23T15:10:02.439Z,101706.75
2023-05-23T15:12:30.701Z,101706.44
2023-05-23T15:15:04.019Z,101715.63
2023-05-23T15:17:34.274Z,101712.53
2023-05-23T15:20:05.984Z,101707.84
2023-05-23T15:22:38.786Z,101705.09
2023-05-23T15:25:09.243Z,101710.44
2023-05-23T15:27:37.326Z,101702.97
2023-05-23T15:30:06.292Z,101707.50
2023-05-23T15:32:35.862Z,101705.44
2023-05-23T15:35:05.325Z,101702.50
2023-05-23T15:37:36.464Z,101698.84
2023-05-23T15:40:05.552Z,101703.22
2023-05-23T15:42:33.799Z,101707.53
2023-05-23T15:45:01.919Z,101709.28
2023-05-23T15:47:30.307Z,101705.47
2023-05-23T15:50:00.217Z,101711.56
2023-05-23T15:52:28.336Z,101711.56
2023-05-23T15:54:57.156Z,101709.81
2023-05-23T15:57:27.976Z,101711.38
2023-05-23T15:59:56.077Z,101703.22
2023-05-23T16:02:24.183Z,101706.00
2023-05-23T16:04:52.305Z,101706.00
2023-05-23T16:07:21.921Z,101701.31
2023-05-23T16:09:50.101Z,101712.59
2023-05-23T16:12:21.586Z,101709.63
2023-05-23T16:14:50.211Z,101713.78
2023-05-23T16:17:18.317Z,101716.72
2023-05-23T16:19:46.611Z,101717.06
2023-05-23T16:22:14.904Z,101708.03
2023-05-23T16:24:44.666Z,101721.19
2023-05-23T16:27:38.739Z,101721.53
2023-05-23T16:30:11.786Z,101728.78
2023-05-23T16:32:44.485Z,101726.16
2023-05-23T16:35:14.745Z,101718.00
2023-05-23T16:37:44.738Z,101712.63
2023-05-23T16:40:18.845Z,101721.66
2023-05-23T16:46:05.563Z,101722.38
2023-05-23T16:48:36.399Z,101720.81
2023-05-23T16:51:05.234Z,101722.88
2023-05-23T16:53:33.224Z,101724.22
2023-05-23T16:56:04.357Z,101735.50
2023-05-23T16:58:36.010Z,101725.75
2023-05-23T17:01:04.168Z,101724.53
2023-05-23T17:03:32.335Z,101725.56
2023-05-23T17:06:00.938Z,101736.78
2023-05-23T17:08:28.909Z,101724.84
2023-05-23T17:10:56.951Z,101730.72
2023-05-23T17:13:26.505Z,101730.53
2023-05-23T17:15:54.740Z,101732.06
2023-05-23T17:18:23.395Z,101732.06
2023-05-23T17:20:51.545Z,101715.59
2023-05-23T17:23:19.805Z,101726.84
2023-05-23T17:25:48.211Z,101729.09
2023-05-23T17:28:16.522Z,101724.56
2023-05-23T17:30:46.177Z,101725.44
2023-05-23T17:33:14.262Z,101729.53
2023-05-23T17:35:42.545Z,101725.91
2023-05-23T17:38:10.677Z,101727.13
2023-05-23T17:40:38.871Z,101730.91
2023-05-23T17:43:07.359Z,101724.50
2023-05-23T17:45:36.133Z,101727.28
2023-05-23T17:48:07.812Z,101729.19
2023-05-23T17:50:35.965Z,101734.50
2023-05-23T17:53:04.420Z,101737.13
2023-05-23T17:55:32.559Z,101744.69
2023-05-23T17:58:01.208Z,101742.97
2023-05-23T18:00:29.173Z,101741.38
2023-05-23T18:02:57.091Z,101747.94
2023-05-23T18:05:26.721Z,101747.94
2023-05-23T18:07:54.533Z,101739.97
2023-05-23T18:10:22.501Z,101738.22
2023-05-23T18:12:51.706Z,101745.66
2023-05-23T18:15:20.558Z,101748.44
2023-05-23T18:17:51.740Z,101748.44
2023-05-23T18:20:27.660Z,101743.06
2023-05-23T18:23:01.723Z,101753.09
2023-05-23T18:25:30.188Z,101755.31
2023-05-23T18:27:59.986Z,101749.75
2023-05-23T18:30:28.716Z,101757.50
2023-05-23T18:32:57.102Z,101751.41
2023-05-23T18:35:25.834Z,101744.47
2023-05-23T18:37:54.427Z,101758.44
2023-05-23T18:40:26.484Z,101757.06
2023-05-23T18:42:54.689Z,101758.69
2023-05-23T18:45:22.817Z,101759.88
2023-05-23T18:47:51.198Z,101763.97
2023-05-23T18:50:20.440Z,101776.25
2023-05-23T18:52:49.056Z,101773.06
2023-05-23T18:55:17.860Z,101773.22
2023-05-23T18:57:47.501Z,101772.53
2023-05-23T19:00:20.499Z,101780.25
2023-05-23T19:02:49.482Z,101790.06
2023-05-23T19:05:17.762Z,101787.59
2023-05-23T19:07:45.856Z,101793.44
2023-05-23T19:10:13.732Z,101800.31
2023-05-23T19:12:45.053Z,101803.38
2023-05-23T19:15:15.064Z,101805.44
2023-05-23T19:17:43.077Z,101804.28
2023-05-23T19:20:12.046Z,101813.59
2023-05-23T19:22:50.974Z,101825.97
2023-05-23T19:25:20.541Z,101830.06
2023-05-23T19:27:48.880Z,101831.25
2023-05-23T19:30:18.826Z,101830.38
2023-05-23T19:32:46.962Z,101825.28
2023-05-23T19:35:17.503Z,101821.84
2023-05-23T19:37:45.859Z,101829.41
2023-05-23T19:40:14.591Z,101834.34
2023-05-23T19:42:43.001Z,101829.00
2023-05-23T19:45:12.034Z,101828.28
2023-05-23T19:47:41.461Z,101833.06
2023-05-23T19:50:11.960Z,101831.47
2023-05-23T19:52:39.866Z,101831.94
2023-05-23T19:55:08.427Z,101834.84
2023-05-23T19:57:36.432Z,101842.41
2023-05-23T20:00:05.762Z,101848.94
2023-05-23T20:02:34.284Z,101841.84
2023-05-23T20:05:03.581Z,101847.38
2023-05-23T20:07:31.571Z,101848.69
2023-05-23T20:09:59.415Z,101853.47
2023-05-23T20:12:27.328Z,101858.31
2023-05-23T20:14:55.733Z,101869.50
2023-05-23T20:17:24.072Z,101871.69
2023-05-23T20:19:51.961Z,101869.22
2023-05-23T20:22:21.315Z,101877.66
2023-05-23T20:24:49.350Z,101883.47
2023-05-23T20:27:19.870Z,101879.13
2023-05-23T20:29:48.043Z,101887.56
2023-05-23T20:32:16.672Z,101897.88
2023-05-23T20:34:44.604Z,101894.53
2023-05-23T20:37:15.463Z,101896.59
2023-05-23T20:39:45.107Z,101899.50
2023-05-23T20:42:15.230Z,101891.63
2023-05-23T20:44:44.676Z,101892.91
2023-05-23T20:47:13.430Z,101896.97
2023-05-23T20:49:42.367Z,101904.69
2023-05-23T20:52:10.331Z,101903.22
2023-05-23T20:54:38.226Z,101906.28
2023-05-23T20:57:07.809Z,101913.69
2023-05-23T20:59:35.951Z,101908.72
2023-05-23T21:02:04.880Z,101909.03
2023-05-23T21:04:35.653Z,101908.31
2023-05-23T21:07:03.923Z,101913.53
2023-05-23T21:09:31.787Z,101914.69
2023-05-23T21:12:10.857Z,101913.09
2023-05-23T21:14:38.769Z,101908.00
2023-05-23T21:17:06.640Z,101914.66
2023-05-23T21:19:34.647Z,101921.34
2023-05-23T21:22:02.661Z,101923.38
2023-05-23T21:24:30.762Z,101922.78
2023-05-23T21:26:58.597Z,101918.44
2023-05-23T21:29:27.815Z,101930.63
2023-05-23T21:31:55.861Z,101929.13
2023-05-23T21:34:26.127Z,101933.19
2023-05-23T21:36:54.136Z,101929.13
2023-05-23T21:39:21.980Z,101936.81
2023-05-23T21:41:50.213Z,101928.78
2023-05-23T21:44:18.886Z,101931.81
2023-05-23T21:46:48.534Z,101929.06
2023-05-23T21:49:16.846Z,101928.59
2023-05-23T21:51:45.142Z,101931.50
2023-05-23T21:54:13.273Z,101933.66
2023-05-23T21:56:41.515Z,101930.28
2023-05-23T21:59:09.496Z,101937.84
2023-05-23T22:01:37.654Z,101935.34
2023-05-23T22:04:07.261Z,101934.47
2023-05-23T22:06:35.253Z,101922.13
2023-05-23T22:09:03.331Z,101928.66
2023-05-23T22:11:34.208Z,101921.53
2023-05-23T22:14:02.782Z,101923.69
2023-05-23T22:16:33.095Z,101927.59
2023-05-23T22:19:02.138Z,101919.44
2023-05-23T22:21:33.036Z,101935.13
2023-05-23T22:24:01.043Z,101929.03
2023-05-23T22:26:29.158Z,101932.78
2023-05-23T22:28:57.144Z,101931.03
2023-05-23T22:31:25.301Z,101926.53
2023-05-23T22:33:53.368Z,101921.16
2023-05-23T22:36:22.344Z,101927.66
2023-05-23T22:38:51.693Z,101919.41
2023-05-23T22:41:19.696Z,101927.09
2023-05-23T22:43:48.131Z,101928.97
2023-05-23T22:46:15.987Z,101925.47
2023-05-23T22:48:45.114Z,101930.22
2023-05-23T22:51:14.600Z,101923.13
2023-05-23T22:53:43.266Z,101919.63
2023-05-23T22:56:12.638Z,101922.38
2023-05-23T22:58:40.682Z,101923.66
2023-05-23T23:01:08.735Z,101934.84
2023-05-23T23:03:36.754Z,101932.34
2023-05-23T23:06:06.218Z,101937.09
2023-05-23T23:08:34.393Z,101933.59
2023-05-23T23:11:02.369Z,101934.75
2023-05-23T23:13:31.884Z,101934.75
2023-05-23T23:15:59.697Z,101929.63
2023-05-23T23:18:27.853Z,101939.94
2023-05-23T23:20:55.727Z,101938.31
2023-05-23T23:23:23.585Z,101932.06
2023-05-23T23:25:52.120Z,101931.28
2023-05-23T23:28:20.850Z,101937.78
2023-05-23T23:30:50.123Z,101935.19
2023-05-23T23:33:18.058Z,101943.84
2023-05-23T23:35:48.509Z,101941.22
2023-05-23T23:38:17.484Z,101937.88
2023-05-23T23:40:45.683Z,101941.88
2023-05-23T23:43:13.928Z,101934.63
2023-05-23T23:45:41.803Z,101937.66
2023-05-23T23:48:11.327Z,101940.41
2023-05-23T23:50:39.230Z,101937.03
2023-05-23T23:53:07.744Z,101940.94
2023-05-23T23:55:35.627Z,101949.34
2023-05-23T23:58:03.510Z,101937.81
